Terminal Aerodrome Forecast
Issued by NWS Twin Cities, MN

Home | Current Version | Previous Version | Text Only | Print | Product List | Glossary Off
Versions: 1 2 3 4 5 6 7 8 9 10 11 12 13 14 15 16 17 18 19 20 21 22 23 24 25 26 27 28

835
FTUS43 KMPX 280532
TAFMSP
TAF
KMSP 280532Z 2806/2912 17010KT P6SM VCSH BKN050 OVC090
     FM280800 15012G20KT P6SM -SHRA VCTS BKN035CB OVC050
      TEMPO 2809/2813 3SM TSRA BR BKN020CB
     FM281300 17012G18KT P6SM -SHRA BKN020 OVC040
     FM281800 21009KT P6SM VCTS BKN035CB
     FM282100 23009KT P6SM VCTS OVC035CB
     FM290000 28007KT P6SM FEW025 BKN100=

USA.gov is the U.S. government's official web portal to all federal, state and local government web resources and services.